createdAt,value
2018-12-16T00:01:15.672Z,15.83
2018-12-16T00:03:44.063Z,15.60
2018-12-16T00:06:12.514Z,16.53
2018-12-16T00:08:40.977Z,17.20
2018-12-16T00:11:09.340Z,16.07
2018-12-16T00:13:38.273Z,18.07
2018-12-16T00:16:06.723Z,16.73
2018-12-16T00:18:35.067Z,16.60
2018-12-16T00:21:03.596Z,15.80
2018-12-16T00:23:32.093Z,16.87
2018-12-16T00:26:00.499Z,17.63
2018-12-16T00:28:28.919Z,16.97
2018-12-16T00:30:57.733Z,16.57
2018-12-16T00:33:26.199Z,17.17
2018-12-16T00:35:54.603Z,16.23
2018-12-16T00:38:22.948Z,16.40
2018-12-16T00:40:51.347Z,16.37
2018-12-16T00:43:19.697Z,15.70
2018-12-16T00:45:48.037Z,15.93
2018-12-16T00:48:16.494Z,16.67
2018-12-16T00:50:44.859Z,15.47
2018-12-16T00:53:13.200Z,18.20
2018-12-16T00:55:41.604Z,16.47
2018-12-16T00:58:10.101Z,16.30
2018-12-16T01:00:38.596Z,15.37
2018-12-16T01:03:06.989Z,16.10
2018-12-16T01:05:36.483Z,16.13
2018-12-16T01:08:04.957Z,16.83
2018-12-16T01:10:33.352Z,16.50
2018-12-16T01:13:01.909Z,16.43
2018-12-16T01:15:30.415Z,16.37
2018-12-16T01:17:58.867Z,17.87
2018-12-16T01:20:27.297Z,17.30
2018-12-16T01:22:55.653Z,17.23
2018-12-16T01:25:24.113Z,16.93
2018-12-16T01:27:52.534Z,16.50
2018-12-16T01:30:21.007Z,16.63
2018-12-16T01:32:49.378Z,16.67
2018-12-16T01:35:17.802Z,16.40
2018-12-16T01:37:46.158Z,15.97
2018-12-16T01:40:14.493Z,16.17
2018-12-16T01:42:42.990Z,16.10
2018-12-16T01:45:11.519Z,17.03
2018-12-16T01:50:14.640Z,16.57
2018-12-16T01:52:43.000Z,15.77
2018-12-16T01:55:11.339Z,16.13
2018-12-16T01:57:39.737Z,15.97
2018-12-16T02:00:09.567Z,16.50
2018-12-16T02:02:37.981Z,16.77
2018-12-16T02:05:06.724Z,17.27
2018-12-16T02:07:35.078Z,17.50
2018-12-16T02:10:04.081Z,16.53
2018-12-16T02:12:32.601Z,17.97
2018-12-16T02:15:01.039Z,18.10
2018-12-16T02:17:29.842Z,17.47
2018-12-16T02:19:59.713Z,17.10
2018-12-16T02:22:28.063Z,16.70
2018-12-16T02:24:56.402Z,18.30
2018-12-16T02:27:24.836Z,16.47
2018-12-16T02:29:53.197Z,16.70
2018-12-16T02:32:21.540Z,18.00
2018-12-16T02:34:49.948Z,16.83
2018-12-16T02:37:18.307Z,18.03
2018-12-16T02:39:53.287Z,17.13
2018-12-16T02:42:21.637Z,16.33
2018-12-16T02:44:50.477Z,16.80
2018-12-16T02:47:18.858Z,16.20
2018-12-16T02:49:47.245Z,16.73
2018-12-16T02:52:15.651Z,17.27
2018-12-16T02:54:43.981Z,16.60
2018-12-16T02:57:12.323Z,16.70
2018-12-16T02:59:40.739Z,17.40
2018-12-16T03:02:09.199Z,18.37
2018-12-16T03:04:37.587Z,17.23
2018-12-16T03:07:06.201Z,17.87
2018-12-16T03:09:34.705Z,17.33
2018-12-16T03:12:03.069Z,17.50
2018-12-16T03:14:31.481Z,16.70
2018-12-16T03:16:59.925Z,17.83
2018-12-16T03:19:28.258Z,18.23
2018-12-16T03:21:56.667Z,17.80
2018-12-16T03:24:25.037Z,18.30
2018-12-16T03:26:53.381Z,17.93
2018-12-16T03:29:21.774Z,18.20
2018-12-16T03:31:50.121Z,17.87
2018-12-16T03:34:18.459Z,17.77
2018-12-16T03:36:47.336Z,17.73
2018-12-16T03:39:15.678Z,18.23
2018-12-16T03:41:44.073Z,17.57
2018-12-16T03:44:12.432Z,18.37
2018-12-16T03:46:40.883Z,18.10
2018-12-16T03:49:09.383Z,18.83
2018-12-16T03:51:37.733Z,18.80
2018-12-16T03:54:06.077Z,18.50
2018-12-16T03:56:34.506Z,18.90
2018-12-16T03:59:15.075Z,18.87
2018-12-16T04:01:45.549Z,18.00
2018-12-16T04:04:14.494Z,18.63
2018-12-16T04:06:43.361Z,18.27
2018-12-16T04:09:11.955Z,18.90
2018-12-16T04:11:40.397Z,19.10
2018-12-16T04:14:08.723Z,18.83
2018-12-16T04:16:37.133Z,19.07
2018-12-16T04:19:05.703Z,18.33
2018-12-16T04:21:34.082Z,18.20
2018-12-16T04:24:02.538Z,19.67
2018-12-16T04:26:30.924Z,18.13
2018-12-16T04:28:59.277Z,18.43
2018-12-16T04:31:27.609Z,19.00
2018-12-16T04:33:56.194Z,19.53
2018-12-16T04:36:24.557Z,19.83
2018-12-16T04:38:52.918Z,18.97
2018-12-16T04:41:21.321Z,20.77
2018-12-16T04:43:50.243Z,19.30
2018-12-16T04:46:18.703Z,20.27
2018-12-16T04:48:47.121Z,19.87
2018-12-16T04:51:15.541Z,19.97
2018-12-16T04:53:43.875Z,20.90
2018-12-16T04:56:12.221Z,21.20
2018-12-16T04:58:40.635Z,20.20
2018-12-16T05:01:08.969Z,19.30
2018-12-16T05:03:37.381Z,19.50
2018-12-16T05:06:05.724Z,20.13
2018-12-16T05:08:34.081Z,20.40
2018-12-16T05:11:02.476Z,21.10
2018-12-16T05:13:30.815Z,19.60
2018-12-16T05:15:59.245Z,21.30
2018-12-16T05:18:27.696Z,20.77
2018-12-16T05:20:56.081Z,20.97
2018-12-16T05:23:24.425Z,20.07
2018-12-16T05:25:52.935Z,21.10
2018-12-16T05:28:21.285Z,21.23
2018-12-16T05:30:49.673Z,20.80
2018-12-16T05:33:18.133Z,20.13
2018-12-16T05:35:46.529Z,20.53
2018-12-16T05:38:14.903Z,20.63
2018-12-16T05:40:43.253Z,20.87
2018-12-16T05:43:11.710Z,20.97
2018-12-16T05:45:40.075Z,21.07
2018-12-16T05:48:08.405Z,20.80
2018-12-16T05:50:36.823Z,20.13
2018-12-16T05:53:05.170Z,20.47
2018-12-16T05:55:33.543Z,21.73
2018-12-16T05:58:01.999Z,18.90
2018-12-16T06:00:30.346Z,19.97
2018-12-16T06:02:58.683Z,20.00
2018-12-16T06:05:27.071Z,19.17
2018-12-16T06:07:56.340Z,20.07
2018-12-16T06:10:24.797Z,20.03
2018-12-16T06:12:53.142Z,21.27
2018-12-16T06:15:21.522Z,20.00
2018-12-16T06:17:49.923Z,20.50
2018-12-16T06:20:18.831Z,20.20
2018-12-16T06:22:47.225Z,20.87
2018-12-16T06:25:15.688Z,21.60
2018-12-16T06:27:44.033Z,20.97
2018-12-16T06:30:12.673Z,21.00
2018-12-16T06:32:41.181Z,21.83
2018-12-16T06:35:15.897Z,20.23
2018-12-16T06:37:44.319Z,20.53
2018-12-16T06:40:12.692Z,17.77
2018-12-16T06:42:41.037Z,20.20
2018-12-16T06:45:09.666Z,20.77
2018-12-16T06:47:38.099Z,21.93
2018-12-16T06:50:07.963Z,21.17
2018-12-16T06:52:36.379Z,20.33
2018-12-16T06:55:05.537Z,21.10
2018-12-16T06:57:33.869Z,21.60
2018-12-16T07:00:02.283Z,22.43
2018-12-16T07:02:30.619Z,23.00
2018-12-16T07:04:59.047Z,21.57
2018-12-16T07:07:27.383Z,20.83
2018-12-16T07:09:55.760Z,21.87
2018-12-16T07:12:24.336Z,22.23
2018-12-16T07:14:52.674Z,23.83
2018-12-16T07:17:21.089Z,22.80
2018-12-16T07:19:49.488Z,21.17
2018-12-16T07:22:18.494Z,22.90
2018-12-16T07:24:46.938Z,22.07
2018-12-16T07:27:15.367Z,22.70
2018-12-16T07:29:43.717Z,24.03
2018-12-16T07:32:12.115Z,23.53
2018-12-16T07:34:40.463Z,24.03
2018-12-16T07:37:08.849Z,25.13
2018-12-16T07:39:37.364Z,22.73
2018-12-16T07:42:05.731Z,23.03
2018-12-16T07:44:34.065Z,22.83
2018-12-16T07:47:02.505Z,21.70
2018-12-16T07:49:30.846Z,21.57
2018-12-16T07:51:59.289Z,21.87
2018-12-16T07:54:27.684Z,21.77
2018-12-16T07:56:56.137Z,22.27
2018-12-16T07:59:24.598Z,22.30
2018-12-16T08:01:52.952Z,22.33
2018-12-16T08:04:21.568Z,24.73
2018-12-16T08:06:50.059Z,21.23
2018-12-16T08:09:18.519Z,23.63
2018-12-16T08:11:47.047Z,22.30
2018-12-16T08:14:15.415Z,21.50
2018-12-16T08:16:43.770Z,22.20
2018-12-16T08:19:12.362Z,21.90
2018-12-16T08:21:40.822Z,21.33
2018-12-16T08:24:09.197Z,24.77
2018-12-16T08:26:37.625Z,24.40
2018-12-16T08:29:09.100Z,22.83
2018-12-16T08:31:37.519Z,21.63
2018-12-16T08:34:05.861Z,21.20
2018-12-16T08:36:34.331Z,22.03
2018-12-16T08:39:03.937Z,21.70
2018-12-16T08:41:32.375Z,21.80
2018-12-16T08:44:00.729Z,20.93
2018-12-16T08:46:29.101Z,21.60
2018-12-16T08:49:04.269Z,20.40
2018-12-16T08:51:32.677Z,19.73
2018-12-16T08:54:01.049Z,21.83
2018-12-16T08:56:29.417Z,20.50
2018-12-16T08:58:57.867Z,19.30
2018-12-16T09:01:26.787Z,19.37
2018-12-16T09:03:55.545Z,17.53
2018-12-16T09:06:23.979Z,19.30
2018-12-16T09:08:52.769Z,19.93
2018-12-16T09:11:21.160Z,20.00
2018-12-16T09:13:49.557Z,20.33
2018-12-16T09:16:17.934Z,20.70
2018-12-16T09:18:46.334Z,19.77
2018-12-16T09:21:14.830Z,20.43
2018-12-16T09:23:43.214Z,21.67
2018-12-16T09:26:11.595Z,20.07
2018-12-16T09:28:40.649Z,21.07
2018-12-16T09:31:08.998Z,17.90
2018-12-16T09:33:37.922Z,20.73
2018-12-16T09:36:16.092Z,16.90
2018-12-16T09:38:44.426Z,20.30
2018-12-16T09:41:12.879Z,19.90
2018-12-16T09:43:41.281Z,21.17
2018-12-16T09:46:09.640Z,21.33
2018-12-16T09:48:38.650Z,20.30
2018-12-16T09:51:07.164Z,21.90
2018-12-16T09:53:35.786Z,21.17
2018-12-16T09:56:04.187Z,18.57
2018-12-16T09:58:32.545Z,19.80
2018-12-16T10:01:19.205Z,21.50
2018-12-16T10:03:47.567Z,20.70
2018-12-16T10:06:16.132Z,21.37
2018-12-16T10:08:44.541Z,20.60
2018-12-16T10:11:12.949Z,24.17
2018-12-16T10:13:41.318Z,24.00
2018-12-16T10:16:09.737Z,19.83
2018-12-16T10:18:39.071Z,21.70
2018-12-16T10:21:07.477Z,21.87
2018-12-16T10:23:35.963Z,20.33
2018-12-16T10:26:04.597Z,21.93
2018-12-16T10:28:32.960Z,22.30
2018-12-16T10:31:01.315Z,22.97
2018-12-16T10:33:29.729Z,21.33
2018-12-16T10:35:58.121Z,20.37
2018-12-16T10:38:26.590Z,21.00
2018-12-16T10:40:55.050Z,20.03
2018-12-16T10:43:23.379Z,19.30
2018-12-16T10:45:51.833Z,19.27
2018-12-16T10:48:20.262Z,16.20
2018-12-16T10:50:48.650Z,19.03
2018-12-16T10:53:17.029Z,18.57
2018-12-16T10:55:45.461Z,18.93
2018-12-16T10:58:13.847Z,18.90
2018-12-16T11:00:47.723Z,17.27
2018-12-16T11:03:16.083Z,18.37
2018-12-16T11:05:44.581Z,18.00
2018-12-16T11:08:12.941Z,16.20
2018-12-16T11:10:41.353Z,18.57
2018-12-16T11:13:10.107Z,17.10
2018-12-16T11:15:39.339Z,19.03
2018-12-16T11:18:07.755Z,18.73
2018-12-16T11:20:36.108Z,19.10
2018-12-16T11:23:04.552Z,14.33
2018-12-16T11:25:34.080Z,14.40
2018-12-16T11:28:02.442Z,15.90
2018-12-16T11:30:30.884Z,14.90
2018-12-16T11:32:59.250Z,17.60
2018-12-16T11:35:27.632Z,12.73
2018-12-16T11:37:56.147Z,18.83
2018-12-16T11:40:24.516Z,17.23
2018-12-16T11:42:52.988Z,13.53
2018-12-16T11:45:21.328Z,18.03
2018-12-16T11:47:49.898Z,17.17
2018-12-16T11:50:18.329Z,18.00
2018-12-16T11:52:47.006Z,15.83
2018-12-16T11:55:15.412Z,14.93
2018-12-16T11:57:43.762Z,15.40
2018-12-16T12:00:12.516Z,15.07
2018-12-16T12:02:40.846Z,18.50
2018-12-16T12:05:09.942Z,15.20
2018-12-16T12:07:38.367Z,17.80
2018-12-16T12:10:07.630Z,18.43
2018-12-16T12:12:36.048Z,16.43
2018-12-16T12:15:04.773Z,17.00
2018-12-16T12:17:33.150Z,19.07
2018-12-16T12:20:01.586Z,19.93
2018-12-16T12:22:29.968Z,18.63
2018-12-16T12:24:58.309Z,20.83
2018-12-16T12:27:26.759Z,18.80
2018-12-16T12:30:02.649Z,18.80
2018-12-16T12:32:31.072Z,18.77
2018-12-16T12:34:59.515Z,19.37
2018-12-16T12:37:27.863Z,20.23
2018-12-16T12:39:56.291Z,21.17
2018-12-16T12:42:24.693Z,20.40
2018-12-16T12:44:53.105Z,19.47
2018-12-16T12:47:21.568Z,23.17
2018-12-16T12:49:49.925Z,20.03
2018-12-16T12:52:18.363Z,15.87
2018-12-16T12:54:46.862Z,19.63
2018-12-16T12:57:15.221Z,19.97
2018-12-16T12:59:43.632Z,20.20
2018-12-16T13:02:11.965Z,25.47
2018-12-16T13:04:40.321Z,20.67
2018-12-16T13:07:08.757Z,20.80
2018-12-16T13:09:37.149Z,20.83
2018-12-16T13:12:05.514Z,20.60
2018-12-16T13:14:33.944Z,20.97
2018-12-16T13:17:02.289Z,23.10
2018-12-16T13:19:30.647Z,21.87
2018-12-16T13:21:59.043Z,21.30
2018-12-16T13:24:27.389Z,18.47
2018-12-16T13:26:56.139Z,20.90
2018-12-16T13:29:24.486Z,24.97
2018-12-16T13:31:52.838Z,22.63
2018-12-16T13:34:21.248Z,24.93
2018-12-16T13:36:49.969Z,22.97
2018-12-16T13:39:18.322Z,21.80
2018-12-16T13:41:46.863Z,22.20
2018-12-16T13:44:15.242Z,22.60
2018-12-16T13:46:43.598Z,25.80
2018-12-16T13:49:11.994Z,25.80
2018-12-16T13:51:40.395Z,23.80
2018-12-16T13:54:08.743Z,26.13
2018-12-16T13:56:37.573Z,23.57
2018-12-16T13:59:06.061Z,23.83
2018-12-16T14:01:34.453Z,24.27
2018-12-16T14:04:02.865Z,23.77
2018-12-16T14:06:31.493Z,24.17
2018-12-16T14:08:59.855Z,32.93
2018-12-16T14:11:28.222Z,23.27
2018-12-16T14:13:56.604Z,22.80
2018-12-16T14:16:29.800Z,21.57
2018-12-16T14:18:58.275Z,26.57
2018-12-16T14:21:26.677Z,23.17
2018-12-16T14:23:55.055Z,24.07
2018-12-16T14:26:23.435Z,22.50
2018-12-16T14:28:52.043Z,22.30
2018-12-16T14:31:20.665Z,20.90
2018-12-16T14:33:49.020Z,20.73
2018-12-16T14:36:17.615Z,21.63
2018-12-16T14:38:46.137Z,21.93
2018-12-16T14:41:14.638Z,20.77
2018-12-16T14:43:43.071Z,21.10
2018-12-16T14:46:11.654Z,22.17
2018-12-16T14:48:40.149Z,22.93
2018-12-16T14:51:09.591Z,21.93
2018-12-16T14:53:37.961Z,23.03
2018-12-16T14:56:06.517Z,24.13
2018-12-16T14:58:35.015Z,21.20
2018-12-16T15:01:03.499Z,20.10
2018-12-16T15:03:31.878Z,20.37
2018-12-16T15:06:00.267Z,22.00
2018-12-16T15:08:28.833Z,20.43
2018-12-16T15:10:57.210Z,21.83
2018-12-16T15:13:25.662Z,22.07
2018-12-16T15:15:58.243Z,22.43
2018-12-16T15:18:26.838Z,23.20
2018-12-16T15:20:55.201Z,22.53
2018-12-16T15:23:23.667Z,23.30
2018-12-16T15:25:52.240Z,21.07
2018-12-16T15:28:20.621Z,21.67
2018-12-16T15:30:49.009Z,21.87
2018-12-16T15:33:17.474Z,21.50
2018-12-16T15:35:45.830Z,22.33
2018-12-16T15:38:14.205Z,22.03
2018-12-16T15:40:49.051Z,23.00
2018-12-16T15:43:17.469Z,22.23
2018-12-16T15:45:45.946Z,22.87
2018-12-16T15:48:14.377Z,21.87
2018-12-16T15:50:42.749Z,23.27
2018-12-16T15:53:11.161Z,23.53
2018-12-16T15:55:39.551Z,23.47
2018-12-16T15:58:07.918Z,22.33
2018-12-16T16:00:36.367Z,22.43
2018-12-16T16:03:04.787Z,22.80
2018-12-16T16:05:33.277Z,22.97
2018-12-16T16:08:01.808Z,24.30
2018-12-16T16:10:30.292Z,22.87
2018-12-16T16:12:58.649Z,22.70
2018-12-16T16:15:27.133Z,22.43
2018-12-16T16:17:55.492Z,21.80
2018-12-16T16:20:23.940Z,22.43
2018-12-16T16:22:52.326Z,23.90
2018-12-16T16:25:20.731Z,23.47
2018-12-16T16:27:49.730Z,19.73
2018-12-16T16:30:18.063Z,24.63
2018-12-16T16:32:46.433Z,21.43
2018-12-16T16:35:14.821Z,16.93
2018-12-16T16:37:43.479Z,19.93
2018-12-16T16:40:11.951Z,17.47
2018-12-16T16:42:40.366Z,21.90
2018-12-16T16:45:08.987Z,18.30
2018-12-16T16:47:37.335Z,19.27
2018-12-16T16:50:06.137Z,20.43
2018-12-16T16:52:34.599Z,18.23
2018-12-16T16:55:02.972Z,18.47
2018-12-16T16:57:31.402Z,16.70
2018-12-16T16:59:59.737Z,21.80
2018-12-16T17:02:28.088Z,21.60
2018-12-16T17:04:56.523Z,19.63
2018-12-16T17:07:25.042Z,22.00
2018-12-16T17:09:53.459Z,21.63
2018-12-16T17:12:22.147Z,21.77
2018-12-16T17:14:53.652Z,22.93
2018-12-16T17:17:22.051Z,22.77
2018-12-16T17:19:50.397Z,24.03
2018-12-16T17:22:19.109Z,23.37
2018-12-16T17:24:47.519Z,21.00
2018-12-16T17:27:15.923Z,29.23
2018-12-16T17:29:44.357Z,27.17
2018-12-16T17:32:12.710Z,20.70
2018-12-16T17:34:41.113Z,24.30
2018-12-16T17:37:09.546Z,23.97
2018-12-16T17:39:37.891Z,20.30
2018-12-16T17:42:06.481Z,22.93
2018-12-16T17:44:34.836Z,19.33
2018-12-16T17:47:03.487Z,23.47
2018-12-16T17:49:32.030Z,25.53
2018-12-16T17:52:00.400Z,28.03
2018-12-16T17:54:28.757Z,27.73
2018-12-16T17:56:57.166Z,28.03
2018-12-16T17:59:25.501Z,26.97
2018-12-16T18:01:54.151Z,20.60
2018-12-16T18:04:22.553Z,26.53
2018-12-16T18:06:51.065Z,24.80
2018-12-16T18:09:19.429Z,23.63
2018-12-16T18:11:47.791Z,19.70
2018-12-16T18:14:16.260Z,24.03
2018-12-16T18:16:44.624Z,21.43
2018-12-16T18:19:12.995Z,23.17
2018-12-16T18:21:41.399Z,21.23
2018-12-16T18:24:09.770Z,21.93
2018-12-16T18:26:44.051Z,19.37
2018-12-16T18:29:08.567Z,17.03
2018-12-16T18:31:37.679Z,20.07
2018-12-16T18:34:06.052Z,21.73
2018-12-16T18:36:34.387Z,25.70
2018-12-16T18:39:02.860Z,24.97
2018-12-16T18:41:31.219Z,21.80
2018-12-16T18:43:59.681Z,23.80
2018-12-16T18:46:28.090Z,18.67
2018-12-16T18:48:56.998Z,22.23
2018-12-16T18:51:25.356Z,23.47
2018-12-16T18:53:53.771Z,21.20
2018-12-16T18:56:22.189Z,18.07
2018-12-16T18:58:57.163Z,22.30
2018-12-16T19:01:25.567Z,19.53
2018-12-16T19:03:54.018Z,21.90
2018-12-16T19:06:22.475Z,20.77
2018-12-16T19:08:50.869Z,24.53
2018-12-16T19:11:19.231Z,19.03
2018-12-16T19:13:47.625Z,20.90
2018-12-16T19:16:16.148Z,22.53
2018-12-16T19:18:44.719Z,22.30
2018-12-16T19:21:16.857Z,21.60
2018-12-16T19:23:45.487Z,18.10
2018-12-16T19:26:13.893Z,20.47
2018-12-16T19:28:42.390Z,20.50
2018-12-16T19:31:10.815Z,23.03
2018-12-16T19:33:39.227Z,25.03
2018-12-16T19:36:07.727Z,22.83
2018-12-16T19:38:36.057Z,25.03
2018-12-16T19:41:04.547Z,24.67
2018-12-16T19:43:33.001Z,20.43
2018-12-16T19:46:01.508Z,24.53
2018-12-16T19:48:30.009Z,23.67
2018-12-16T19:50:58.411Z,23.83
2018-12-16T19:53:26.781Z,22.87
2018-12-16T19:55:55.256Z,18.03
2018-12-16T19:58:24.365Z,17.27
2018-12-16T20:00:52.963Z,15.73
2018-12-16T20:03:21.414Z,16.87
2018-12-16T20:05:55.192Z,21.60
2018-12-16T20:08:24.326Z,16.57
2018-12-16T20:10:52.931Z,18.63
2018-12-16T20:13:21.529Z,18.57
2018-12-16T20:15:51.273Z,19.57
2018-12-16T20:18:26.302Z,27.13
2018-12-16T20:20:54.789Z,18.40
2018-12-16T20:23:23.371Z,21.83
2018-12-16T20:25:51.889Z,18.20
2018-12-16T20:28:20.238Z,19.93
2018-12-16T20:30:48.655Z,19.70
2018-12-16T20:33:17.091Z,18.90
2018-12-16T20:35:45.582Z,16.37
2018-12-16T20:38:14.382Z,14.70
2018-12-16T20:40:43.129Z,16.97
2018-12-16T20:43:12.696Z,18.03
2018-12-16T20:45:41.119Z,21.97
2018-12-16T20:48:09.662Z,18.10
2018-12-16T20:50:38.910Z,18.83
2018-12-16T20:53:07.461Z,16.87
2018-12-16T20:55:35.919Z,21.73
2018-12-16T20:58:04.281Z,20.37
2018-12-16T21:00:32.847Z,14.30
2018-12-16T21:03:01.407Z,16.07
2018-12-16T21:05:30.033Z,14.70
2018-12-16T21:07:58.532Z,17.00
2018-12-16T21:10:26.929Z,17.83
2018-12-16T21:13:00.761Z,20.87
2018-12-16T21:15:34.476Z,18.47
2018-12-16T21:18:08.229Z,20.03
2018-12-16T21:20:45.179Z,14.40
2018-12-16T21:23:13.927Z,17.90
2018-12-16T21:25:42.466Z,19.10
2018-12-16T21:28:10.979Z,13.33
2018-12-16T21:30:39.323Z,11.13
2018-12-16T21:33:07.927Z,17.17
2018-12-16T21:35:36.501Z,18.87
2018-12-16T21:38:05.008Z,18.70
2018-12-16T21:40:33.593Z,17.03
2018-12-16T21:43:02.271Z,21.13
2018-12-16T21:45:31.120Z,13.47
2018-12-16T21:47:59.760Z,21.10
2018-12-16T21:50:28.582Z,17.03
2018-12-16T21:52:56.926Z,12.50
2018-12-16T21:55:25.386Z,16.17
2018-12-16T21:57:53.852Z,16.87
2018-12-16T22:00:22.854Z,11.80
2018-12-16T22:02:51.518Z,24.13
2018-12-16T22:08:13.514Z,17.53
2018-12-16T22:10:41.870Z,15.93
2018-12-16T22:13:10.819Z,14.23
2018-12-16T22:15:39.350Z,16.07
2018-12-16T22:18:07.701Z,16.03
2018-12-16T22:20:36.048Z,14.13
2018-12-16T22:23:04.446Z,15.73
2018-12-16T22:25:32.847Z,11.30
2018-12-16T22:28:01.181Z,18.07
2018-12-16T22:30:29.592Z,19.93
2018-12-16T22:32:57.962Z,18.70
2018-12-16T22:35:26.417Z,18.43
2018-12-16T22:37:54.806Z,17.17
2018-12-16T22:40:23.494Z,14.53
2018-12-16T22:42:51.983Z,17.57
2018-12-16T22:45:20.389Z,19.70
2018-12-16T22:47:48.868Z,20.63
2018-12-16T22:50:17.328Z,20.43
2018-12-16T22:52:45.675Z,16.27
2018-12-16T22:55:14.001Z,28.67
2018-12-16T22:57:47.015Z,25.23
2018-12-16T23:00:17.875Z,19.40
2018-12-16T23:02:46.426Z,15.73
2018-12-16T23:05:14.760Z,13.70
2018-12-16T23:07:43.086Z,14.77
2018-12-16T23:10:11.520Z,12.93
2018-12-16T23:12:39.994Z,17.50
2018-12-16T23:15:08.576Z,14.90
2018-12-16T23:17:36.912Z,15.90
2018-12-16T23:20:11.178Z,15.57
2018-12-16T23:22:39.734Z,15.00
2018-12-16T23:25:09.170Z,14.67
2018-12-16T23:27:37.514Z,13.17
2018-12-16T23:30:07.058Z,13.07
2018-12-16T23:32:36.019Z,12.47
2018-12-16T23:35:04.681Z,12.87
2018-12-16T23:37:33.070Z,11.83
2018-12-16T23:40:01.605Z,12.97
2018-12-16T23:42:29.949Z,12.83
2018-12-16T23:44:58.289Z,13.33
2018-12-16T23:47:26.689Z,11.97
2018-12-16T23:49:55.085Z,13.10
2018-12-16T23:52:23.442Z,13.00
2018-12-16T23:54:58.463Z,11.37
2018-12-16T23:57:26.831Z,13.23
2018-12-16T23:59:55.529Z,12.40
